sensor_id;sensor_type;location;lat;lon;timestamp;temperature;humidity
40538;DHT22;27925;41.874;12.526;2023-03-11T00:01:02;14.30;75.70
40538;DHT22;27925;41.874;12.526;2023-03-11T00:03:29;14.20;75.60
40538;DHT22;27925;41.874;12.526;2023-03-11T00:05:55;14.20;75.30
40538;DHT22;27925;41.874;12.526;2023-03-11T00:08:24;14.20;75.90
40538;DHT22;27925;41.874;12.526;2023-03-11T00:10:55;14.10;75.80
40538;DHT22;27925;41.874;12.526;2023-03-11T00:13:23;14.10;76.40
40538;DHT22;27925;41.874;12.526;2023-03-11T00:15:50;14.10;76.10
40538;DHT22;27925;41.874;12.526;2023-03-11T00:18:20;14.10;75.80
40538;DHT22;27925;41.874;12.526;2023-03-11T00:20:50;14.10;75.60
40538;DHT22;27925;41.874;12.526;2023-03-11T00:23:16;14.10;76.10
40538;DHT22;27925;41.874;12.526;2023-03-11T00:25:43;14.10;76.00
40538;DHT22;27925;41.874;12.526;2023-03-11T00:28:09;14.20;76.10
40538;DHT22;27925;41.874;12.526;2023-03-11T00:30:36;14.20;75.90
40538;DHT22;27925;41.874;12.526;2023-03-11T00:33:02;14.20;76.10
40538;DHT22;27925;41.874;12.526;2023-03-11T00:35:32;14.20;76.10
40538;DHT22;27925;41.874;12.526;2023-03-11T00:38:01;14.20;76.30
40538;DHT22;27925;41.874;12.526;2023-03-11T00:40:29;14.20;76.10
40538;DHT22;27925;41.874;12.526;2023-03-11T00:42:55;14.20;76.30
40538;DHT22;27925;41.874;12.526;2023-03-11T00:45:21;14.20;76.20
40538;DHT22;27925;41.874;12.526;2023-03-11T00:47:47;14.20;76.30
40538;DHT22;27925;41.874;12.526;2023-03-11T00:50:19;14.20;76.40
40538;DHT22;27925;41.874;12.526;2023-03-11T00:52:46;14.20;76.30
40538;DHT22;27925;41.874;12.526;2023-03-11T00:55:14;14.10;76.20
40538;DHT22;27925;41.874;12.526;2023-03-11T00:57:40;14.10;76.10
40538;DHT22;27925;41.874;12.526;2023-03-11T01:00:07;14.00;76.10
40538;DHT22;27925;41.874;12.526;2023-03-11T01:02:36;14.00;75.90
40538;DHT22;27925;41.874;12.526;2023-03-11T01:05:03;14.00;76.10
40538;DHT22;27925;41.874;12.526;2023-03-11T01:07:30;13.90;75.90
40538;DHT22;27925;41.874;12.526;2023-03-11T01:09:56;14.00;76.10
40538;DHT22;27925;41.874;12.526;2023-03-11T01:12:21;14.00;76.00
40538;DHT22;27925;41.874;12.526;2023-03-11T01:14:47;14.00;76.00
40538;DHT22;27925;41.874;12.526;2023-03-11T01:17:13;13.90;76.00
40538;DHT22;27925;41.874;12.526;2023-03-11T01:19:38;13.90;76.20
40538;DHT22;27925;41.874;12.526;2023-03-11T01:22:04;14.00;76.30
40538;DHT22;27925;41.874;12.526;2023-03-11T01:24:30;14.00;76.30
40538;DHT22;27925;41.874;12.526;2023-03-11T01:26:56;14.00;76.40
40538;DHT22;27925;41.874;12.526;2023-03-11T01:29:21;14.00;76.50
40538;DHT22;27925;41.874;12.526;2023-03-11T01:31:47;14.00;76.80
40538;DHT22;27925;41.874;12.526;2023-03-11T01:34:13;14.10;76.80
40538;DHT22;27925;41.874;12.526;2023-03-11T01:36:38;14.10;76.80
40538;DHT22;27925;41.874;12.526;2023-03-11T01:39:04;14.10;76.90
40538;DHT22;27925;41.874;12.526;2023-03-11T01:41:30;14.10;76.90
40538;DHT22;27925;41.874;12.526;2023-03-11T01:43:56;14.10;77.00
40538;DHT22;27925;41.874;12.526;2023-03-11T01:47:26;14.10;77.20
40538;DHT22;27925;41.874;12.526;2023-03-11T01:49:13;14.10;77.50
40538;DHT22;27925;41.874;12.526;2023-03-11T01:51:41;14.10;77.40
40538;DHT22;27925;41.874;12.526;2023-03-11T01:54:37;14.10;77.70
40538;DHT22;27925;41.874;12.526;2023-03-11T01:57:10;14.10;77.80
40538;DHT22;27925;41.874;12.526;2023-03-11T01:59:39;14.10;77.90
40538;DHT22;27925;41.874;12.526;2023-03-11T02:02:54;14.10;77.90
40538;DHT22;27925;41.874;12.526;2023-03-11T02:04:56;14.10;78.10
40538;DHT22;27925;41.874;12.526;2023-03-11T02:07:21;14.00;78.10
40538;DHT22;27925;41.874;12.526;2023-03-11T02:09:47;14.00;78.30
40538;DHT22;27925;41.874;12.526;2023-03-11T02:12:13;14.00;78.30
40538;DHT22;27925;41.874;12.526;2023-03-11T02:14:45;13.90;78.10
40538;DHT22;27925;41.874;12.526;2023-03-11T02:17:12;13.90;78.70
40538;DHT22;27925;41.874;12.526;2023-03-11T02:22:30;13.90;78.90
40538;DHT22;27925;41.874;12.526;2023-03-11T02:27:38;13.80;78.90
40538;DHT22;27925;41.874;12.526;2023-03-11T02:30:07;13.80;78.70
40538;DHT22;27925;41.874;12.526;2023-03-11T02:32:33;13.90;78.70
40538;DHT22;27925;41.874;12.526;2023-03-11T02:34:59;13.90;78.70
40538;DHT22;27925;41.874;12.526;2023-03-11T02:37:25;13.90;78.60
40538;DHT22;27925;41.874;12.526;2023-03-11T02:39:52;13.90;78.60
40538;DHT22;27925;41.874;12.526;2023-03-11T02:42:29;13.80;78.30
40538;DHT22;27925;41.874;12.526;2023-03-11T02:45:05;13.80;78.30
40538;DHT22;27925;41.874;12.526;2023-03-11T02:47:33;13.80;78.40
40538;DHT22;27925;41.874;12.526;2023-03-11T02:50:00;13.70;78.20
40538;DHT22;27925;41.874;12.526;2023-03-11T02:52:27;13.60;78.20
40538;DHT22;27925;41.874;12.526;2023-03-11T02:54:53;13.60;78.30
40538;DHT22;27925;41.874;12.526;2023-03-11T02:57:19;13.50;78.30
40538;DHT22;27925;41.874;12.526;2023-03-11T02:59:45;13.50;78.10
40538;DHT22;27925;41.874;12.526;2023-03-11T03:02:10;13.40;78.00
40538;DHT22;27925;41.874;12.526;2023-03-11T03:04:36;13.30;78.00
40538;DHT22;27925;41.874;12.526;2023-03-11T03:07:02;13.10;77.90
40538;DHT22;27925;41.874;12.526;2023-03-11T03:09:27;13.10;78.20
40538;DHT22;27925;41.874;12.526;2023-03-11T03:11:53;13.00;78.10
40538;DHT22;27925;41.874;12.526;2023-03-11T03:14:19;13.00;78.30
40538;DHT22;27925;41.874;12.526;2023-03-11T03:16:44;12.90;78.00
40538;DHT22;27925;41.874;12.526;2023-03-11T03:19:10;12.90;78.20
40538;DHT22;27925;41.874;12.526;2023-03-11T03:21:36;12.80;78.10
40538;DHT22;27925;41.874;12.526;2023-03-11T03:24:01;12.80;78.10
40538;DHT22;27925;41.874;12.526;2023-03-11T03:26:28;12.80;78.10
40538;DHT22;27925;41.874;12.526;2023-03-11T03:28:53;12.80;78.30
40538;DHT22;27925;41.874;12.526;2023-03-11T03:31:19;12.80;78.30
40538;DHT22;27925;41.874;12.526;2023-03-11T03:33:45;12.80;78.20
40538;DHT22;27925;41.874;12.526;2023-03-11T03:36:12;12.80;78.10
40538;DHT22;27925;41.874;12.526;2023-03-11T03:38:38;12.80;78.10
40538;DHT22;27925;41.874;12.526;2023-03-11T03:41:04;12.80;78.10
40538;DHT22;27925;41.874;12.526;2023-03-11T03:43:30;12.80;78.20
40538;DHT22;27925;41.874;12.526;2023-03-11T03:46:04;12.70;78.10
40538;DHT22;27925;41.874;12.526;2023-03-11T03:48:30;12.70;78.10
40538;DHT22;27925;41.874;12.526;2023-03-11T03:50:56;12.60;77.60
40538;DHT22;27925;41.874;12.526;2023-03-11T03:53:26;12.50;77.90
40538;DHT22;27925;41.874;12.526;2023-03-11T03:55:52;12.40;78.10
40538;DHT22;27925;41.874;12.526;2023-03-11T03:58:19;12.30;78.10
40538;DHT22;27925;41.874;12.526;2023-03-11T04:00:44;12.30;78.10
40538;DHT22;27925;41.874;12.526;2023-03-11T04:03:10;12.30;78.20
40538;DHT22;27925;41.874;12.526;2023-03-11T04:05:36;12.30;78.50
40538;DHT22;27925;41.874;12.526;2023-03-11T04:08:01;12.30;78.20
40538;DHT22;27925;41.874;12.526;2023-03-11T04:10:27;12.30;78.30
40538;DHT22;27925;41.874;12.526;2023-03-11T04:12:53;12.40;78.50
40538;DHT22;27925;41.874;12.526;2023-03-11T04:15:19;12.40;78.30
40538;DHT22;27925;41.874;12.526;2023-03-11T04:17:44;12.40;78.30
40538;DHT22;27925;41.874;12.526;2023-03-11T04:20:10;12.40;78.30
40538;DHT22;27925;41.874;12.526;2023-03-11T04:22:36;12.30;78.30
40538;DHT22;27925;41.874;12.526;2023-03-11T04:25:02;12.30;78.40
40538;DHT22;27925;41.874;12.526;2023-03-11T04:27:28;12.30;78.50
40538;DHT22;27925;41.874;12.526;2023-03-11T04:29:54;12.20;78.30
40538;DHT22;27925;41.874;12.526;2023-03-11T04:32:19;12.30;78.50
40538;DHT22;27925;41.874;12.526;2023-03-11T04:34:47;12.30;78.70
40538;DHT22;27925;41.874;12.526;2023-03-11T04:37:13;12.30;78.60
40538;DHT22;27925;41.874;12.526;2023-03-11T04:39:38;12.30;78.60
40538;DHT22;27925;41.874;12.526;2023-03-11T04:42:04;12.30;78.50
40538;DHT22;27925;41.874;12.526;2023-03-11T04:44:30;12.30;78.60
40538;DHT22;27925;41.874;12.526;2023-03-11T04:46:56;12.20;78.40
40538;DHT22;27925;41.874;12.526;2023-03-11T04:49:21;12.20;78.40
40538;DHT22;27925;41.874;12.526;2023-03-11T04:51:47;12.10;78.50
40538;DHT22;27925;41.874;12.526;2023-03-11T04:54:13;12.10;78.40
40538;DHT22;27925;41.874;12.526;2023-03-11T04:56:38;12.10;78.60
40538;DHT22;27925;41.874;12.526;2023-03-11T04:59:04;12.20;78.50
40538;DHT22;27925;41.874;12.526;2023-03-11T05:01:30;12.20;78.60
40538;DHT22;27925;41.874;12.526;2023-03-11T05:03:55;12.20;78.50
40538;DHT22;27925;41.874;12.526;2023-03-11T05:06:21;12.20;78.50
40538;DHT22;27925;41.874;12.526;2023-03-11T05:08:47;12.30;78.60
40538;DHT22;27925;41.874;12.526;2023-03-11T05:11:12;12.30;78.60
40538;DHT22;27925;41.874;12.526;2023-03-11T05:13:38;12.30;78.60
40538;DHT22;27925;41.874;12.526;2023-03-11T05:16:04;12.30;78.60
40538;DHT22;27925;41.874;12.526;2023-03-11T05:18:30;12.30;78.80
40538;DHT22;27925;41.874;12.526;2023-03-11T05:20:57;12.30;78.70
40538;DHT22;27925;41.874;12.526;2023-03-11T05:23:22;12.30;78.70
40538;DHT22;27925;41.874;12.526;2023-03-11T05:25:48;12.20;78.80
40538;DHT22;27925;41.874;12.526;2023-03-11T05:28:14;12.20;79.10
40538;DHT22;27925;41.874;12.526;2023-03-11T05:30:39;12.10;79.10
40538;DHT22;27925;41.874;12.526;2023-03-11T05:33:05;12.00;79.30
40538;DHT22;27925;41.874;12.526;2023-03-11T05:35:31;12.00;79.60
40538;DHT22;27925;41.874;12.526;2023-03-11T05:37:56;12.00;79.90
40538;DHT22;27925;41.874;12.526;2023-03-11T05:40:22;11.90;79.60
40538;DHT22;27925;41.874;12.526;2023-03-11T05:42:48;11.80;80.00
40538;DHT22;27925;41.874;12.526;2023-03-11T05:45:14;11.90;80.20
40538;DHT22;27925;41.874;12.526;2023-03-11T05:47:40;11.90;80.30
40538;DHT22;27925;41.874;12.526;2023-03-11T05:50:08;11.90;80.30
40538;DHT22;27925;41.874;12.526;2023-03-11T05:52:33;12.00;80.70
40538;DHT22;27925;41.874;12.526;2023-03-11T05:54:59;12.00;80.10
40538;DHT22;27925;41.874;12.526;2023-03-11T05:57:25;12.00;80.20
40538;DHT22;27925;41.874;12.526;2023-03-11T05:59:50;12.10;80.30
